sensor_id;sensor_type;location;lat;lon;timestamp;P1;durP1;ratioP1;P2;durP2;ratioP2
36291;SDS011;22327;51.208;6.418;2022-08-18T00:01:24;44.30;;;35.35;;
36291;SDS011;22327;51.208;6.418;2022-08-18T00:03:53;37.92;;;32.78;;
36291;SDS011;22327;51.208;6.418;2022-08-18T00:06:19;46.08;;;37.15;;
36291;SDS011;22327;51.208;6.418;2022-08-18T00:08:45;38.20;;;31.58;;
36291;SDS011;22327;51.208;6.418;2022-08-18T00:11:11;36.97;;;31.30;;
36291;SDS011;22327;51.208;6.418;2022-08-18T00:13:36;37.10;;;30.83;;
36291;SDS011;22327;51.208;6.418;2022-08-18T00:16:02;38.33;;;31.23;;
36291;SDS011;22327;51.208;6.418;2022-08-18T00:18:28;43.00;;;30.55;;
36291;SDS011;22327;51.208;6.418;2022-08-18T00:20:53;41.20;;;30.85;;
36291;SDS011;22327;51.208;6.418;2022-08-18T00:23:19;38.55;;;31.00;;
36291;SDS011;22327;51.208;6.418;2022-08-18T00:25:45;35.95;;;29.48;;
36291;SDS011;22327;51.208;6.418;2022-08-18T00:28:11;36.92;;;31.27;;
36291;SDS011;22327;51.208;6.418;2022-08-18T00:30:37;34.55;;;28.67;;
36291;SDS011;22327;51.208;6.418;2022-08-18T00:33:03;33.75;;;28.60;;
36291;SDS011;22327;51.208;6.418;2022-08-18T00:35:31;35.55;;;28.50;;
36291;SDS011;22327;51.208;6.418;2022-08-18T00:37:59;34.97;;;28.83;;
36291;SDS011;22327;51.208;6.418;2022-08-18T00:40:38;28.13;;;25.02;;
36291;SDS011;22327;51.208;6.418;2022-08-18T00:43:10;30.02;;;26.77;;
36291;SDS011;22327;51.208;6.418;2022-08-18T00:45:43;28.33;;;25.35;;
36291;SDS011;22327;51.208;6.418;2022-08-18T00:48:10;32.25;;;27.08;;
36291;SDS011;22327;51.208;6.418;2022-08-18T00:50:42;31.33;;;26.52;;
36291;SDS011;22327;51.208;6.418;2022-08-18T00:53:33;33.90;;;27.77;;
36291;SDS011;22327;51.208;6.418;2022-08-18T00:56:02;40.55;;;27.98;;
36291;SDS011;22327;51.208;6.418;2022-08-18T00:58:37;32.30;;;26.58;;
36291;SDS011;22327;51.208;6.418;2022-08-18T01:01:24;34.97;;;28.63;;
36291;SDS011;22327;51.208;6.418;2022-08-18T01:03:55;38.58;;;30.95;;
36291;SDS011;22327;51.208;6.418;2022-08-18T01:06:29;37.75;;;30.30;;
36291;SDS011;22327;51.208;6.418;2022-08-18T01:09:01;36.47;;;30.35;;
36291;SDS011;22327;51.208;6.418;2022-08-18T01:11:27;35.63;;;29.60;;
36291;SDS011;22327;51.208;6.418;2022-08-18T01:13:53;29.88;;;26.00;;
36291;SDS011;22327;51.208;6.418;2022-08-18T01:16:21;35.15;;;29.92;;
36291;SDS011;22327;51.208;6.418;2022-08-18T01:19:05;37.35;;;29.80;;
36291;SDS011;22327;51.208;6.418;2022-08-18T01:22:07;31.83;;;27.27;;
36291;SDS011;22327;51.208;6.418;2022-08-18T01:24:38;33.45;;;29.15;;
36291;SDS011;22327;51.208;6.418;2022-08-18T01:27:23;31.75;;;26.73;;
36291;SDS011;22327;51.208;6.418;2022-08-18T01:29:53;33.78;;;29.00;;
36291;SDS011;22327;51.208;6.418;2022-08-18T01:32:20;36.90;;;30.50;;
36291;SDS011;22327;51.208;6.418;2022-08-18T01:34:47;34.22;;;27.30;;
36291;SDS011;22327;51.208;6.418;2022-08-18T01:37:16;32.08;;;27.65;;
36291;SDS011;22327;51.208;6.418;2022-08-18T01:39:44;37.35;;;30.10;;
36291;SDS011;22327;51.208;6.418;2022-08-18T01:42:11;34.17;;;28.30;;
36291;SDS011;22327;51.208;6.418;2022-08-18T01:44:38;36.08;;;29.95;;
36291;SDS011;22327;51.208;6.418;2022-08-18T01:47:07;35.65;;;28.83;;
36291;SDS011;22327;51.208;6.418;2022-08-18T01:49:34;39.22;;;30.02;;
36291;SDS011;22327;51.208;6.418;2022-08-18T01:52:00;37.20;;;30.08;;
36291;SDS011;22327;51.208;6.418;2022-08-18T01:54:28;60.92;;;44.72;;
36291;SDS011;22327;51.208;6.418;2022-08-18T01:56:54;69.72;;;52.72;;
36291;SDS011;22327;51.208;6.418;2022-08-18T01:59:20;50.05;;;37.78;;
36291;SDS011;22327;51.208;6.418;2022-08-18T02:01:46;43.75;;;34.65;;
36291;SDS011;22327;51.208;6.418;2022-08-18T02:04:12;36.80;;;30.17;;
36291;SDS011;22327;51.208;6.418;2022-08-18T02:06:39;33.72;;;27.48;;
36291;SDS011;22327;51.208;6.418;2022-08-18T02:09:06;33.38;;;26.95;;
36291;SDS011;22327;51.208;6.418;2022-08-18T02:11:31;35.25;;;28.13;;
36291;SDS011;22327;51.208;6.418;2022-08-18T02:13:57;31.70;;;27.83;;
36291;SDS011;22327;51.208;6.418;2022-08-18T02:16:22;35.45;;;27.60;;
36291;SDS011;22327;51.208;6.418;2022-08-18T02:18:48;32.17;;;25.92;;
36291;SDS011;22327;51.208;6.418;2022-08-18T02:21:14;29.85;;;24.77;;
36291;SDS011;22327;51.208;6.418;2022-08-18T02:23:43;29.35;;;24.63;;
36291;SDS011;22327;51.208;6.418;2022-08-18T02:26:11;31.85;;;25.42;;
36291;SDS011;22327;51.208;6.418;2022-08-18T02:28:40;30.35;;;23.52;;
36291;SDS011;22327;51.208;6.418;2022-08-18T02:31:06;31.50;;;25.55;;
36291;SDS011;22327;51.208;6.418;2022-08-18T02:33:34;31.02;;;25.23;;
36291;SDS011;22327;51.208;6.418;2022-08-18T02:36:00;28.50;;;23.42;;
36291;SDS011;22327;51.208;6.418;2022-08-18T02:38:26;28.88;;;24.17;;
36291;SDS011;22327;51.208;6.418;2022-08-18T02:40:54;30.15;;;23.27;;
36291;SDS011;22327;51.208;6.418;2022-08-18T02:43:21;29.85;;;23.92;;
36291;SDS011;22327;51.208;6.418;2022-08-18T02:45:46;31.52;;;25.52;;
36291;SDS011;22327;51.208;6.418;2022-08-18T02:48:12;25.92;;;23.13;;
36291;SDS011;22327;51.208;6.418;2022-08-18T02:50:37;27.77;;;23.00;;
36291;SDS011;22327;51.208;6.418;2022-08-18T02:53:15;25.33;;;21.95;;
36291;SDS011;22327;51.208;6.418;2022-08-18T02:55:47;25.55;;;21.70;;
36291;SDS011;22327;51.208;6.418;2022-08-18T02:58:13;27.02;;;21.77;;
36291;SDS011;22327;51.208;6.418;2022-08-18T03:00:39;26.92;;;22.33;;
36291;SDS011;22327;51.208;6.418;2022-08-18T03:03:05;27.48;;;22.08;;
36291;SDS011;22327;51.208;6.418;2022-08-18T03:05:31;30.15;;;24.52;;
36291;SDS011;22327;51.208;6.418;2022-08-18T03:07:56;30.13;;;25.02;;
36291;SDS011;22327;51.208;6.418;2022-08-18T03:10:23;32.17;;;26.70;;
36291;SDS011;22327;51.208;6.418;2022-08-18T03:12:49;35.88;;;26.17;;
36291;SDS011;22327;51.208;6.418;2022-08-18T03:15:15;35.08;;;26.40;;
36291;SDS011;22327;51.208;6.418;2022-08-18T03:17:40;29.20;;;22.77;;
36291;SDS011;22327;51.208;6.418;2022-08-18T03:20:06;32.10;;;25.88;;
36291;SDS011;22327;51.208;6.418;2022-08-18T03:22:32;33.72;;;26.58;;
36291;SDS011;22327;51.208;6.418;2022-08-18T03:24:58;40.38;;;27.95;;
36291;SDS011;22327;51.208;6.418;2022-08-18T03:27:24;30.88;;;24.67;;
36291;SDS011;22327;51.208;6.418;2022-08-18T03:29:50;30.95;;;24.10;;
36291;SDS011;22327;51.208;6.418;2022-08-18T03:32:16;32.80;;;25.08;;
36291;SDS011;22327;51.208;6.418;2022-08-18T03:34:42;31.77;;;25.05;;
36291;SDS011;22327;51.208;6.418;2022-08-18T03:37:08;34.20;;;25.67;;
36291;SDS011;22327;51.208;6.418;2022-08-18T03:39:34;38.78;;;28.73;;
36291;SDS011;22327;51.208;6.418;2022-08-18T03:42:00;39.65;;;30.67;;
36291;SDS011;22327;51.208;6.418;2022-08-18T03:44:30;63.10;;;46.67;;
36291;SDS011;22327;51.208;6.418;2022-08-18T03:46:57;63.08;;;48.53;;
36291;SDS011;22327;51.208;6.418;2022-08-18T03:49:25;66.72;;;52.50;;
36291;SDS011;22327;51.208;6.418;2022-08-18T03:51:51;52.10;;;40.17;;
36291;SDS011;22327;51.208;6.418;2022-08-18T03:54:17;46.13;;;34.97;;
36291;SDS011;22327;51.208;6.418;2022-08-18T03:56:43;41.63;;;32.10;;
36291;SDS011;22327;51.208;6.418;2022-08-18T03:59:17;41.05;;;31.10;;
36291;SDS011;22327;51.208;6.418;2022-08-18T04:01:46;40.00;;;30.13;;
36291;SDS011;22327;51.208;6.418;2022-08-18T04:04:17;41.47;;;30.08;;
36291;SDS011;22327;51.208;6.418;2022-08-18T04:06:46;36.03;;;27.40;;
36291;SDS011;22327;51.208;6.418;2022-08-18T04:09:21;37.50;;;27.77;;
36291;SDS011;22327;51.208;6.418;2022-08-18T04:11:48;36.45;;;26.90;;
36291;SDS011;22327;51.208;6.418;2022-08-18T04:14:15;34.33;;;26.85;;
36291;SDS011;22327;51.208;6.418;2022-08-18T04:16:43;34.88;;;26.52;;
36291;SDS011;22327;51.208;6.418;2022-08-18T04:19:12;32.10;;;24.63;;
36291;SDS011;22327;51.208;6.418;2022-08-18T04:21:41;35.65;;;26.17;;
36291;SDS011;22327;51.208;6.418;2022-08-18T04:24:08;33.28;;;25.52;;
36291;SDS011;22327;51.208;6.418;2022-08-18T04:26:38;33.03;;;25.85;;
36291;SDS011;22327;51.208;6.418;2022-08-18T04:29:09;30.83;;;24.13;;
36291;SDS011;22327;51.208;6.418;2022-08-18T04:31:35;32.85;;;24.80;;
36291;SDS011;22327;51.208;6.418;2022-08-18T04:34:01;29.88;;;24.75;;
36291;SDS011;22327;51.208;6.418;2022-08-18T04:36:27;32.13;;;25.52;;
36291;SDS011;22327;51.208;6.418;2022-08-18T04:38:55;32.58;;;25.23;;
36291;SDS011;22327;51.208;6.418;2022-08-18T04:41:22;31.30;;;24.10;;
36291;SDS011;22327;51.208;6.418;2022-08-18T04:43:52;31.77;;;23.27;;
36291;SDS011;22327;51.208;6.418;2022-08-18T04:46:18;29.55;;;22.90;;
36291;SDS011;22327;51.208;6.418;2022-08-18T04:48:44;30.10;;;23.60;;
36291;SDS011;22327;51.208;6.418;2022-08-18T04:51:11;33.75;;;26.17;;
36291;SDS011;22327;51.208;6.418;2022-08-18T04:53:41;32.95;;;26.67;;
36291;SDS011;22327;51.208;6.418;2022-08-18T04:56:15;33.70;;;26.27;;
36291;SDS011;22327;51.208;6.418;2022-08-18T04:58:45;33.05;;;24.52;;
36291;SDS011;22327;51.208;6.418;2022-08-18T05:01:16;33.63;;;25.70;;
36291;SDS011;22327;51.208;6.418;2022-08-18T05:03:43;30.35;;;22.27;;
36291;SDS011;22327;51.208;6.418;2022-08-18T05:06:08;29.60;;;24.05;;
36291;SDS011;22327;51.208;6.418;2022-08-18T05:08:34;24.92;;;21.15;;
36291;SDS011;22327;51.208;6.418;2022-08-18T05:11:00;32.30;;;25.63;;
36291;SDS011;22327;51.208;6.418;2022-08-18T05:13:25;31.35;;;24.02;;
36291;SDS011;22327;51.208;6.418;2022-08-18T05:15:55;27.77;;;22.67;;
36291;SDS011;22327;51.208;6.418;2022-08-18T05:18:23;34.05;;;24.45;;
36291;SDS011;22327;51.208;6.418;2022-08-18T05:20:50;34.22;;;26.55;;
36291;SDS011;22327;51.208;6.418;2022-08-18T05:23:16;31.30;;;24.13;;
36291;SDS011;22327;51.208;6.418;2022-08-18T05:25:43;28.80;;;23.05;;
36291;SDS011;22327;51.208;6.418;2022-08-18T05:28:09;32.38;;;25.77;;
36291;SDS011;22327;51.208;6.418;2022-08-18T05:30:35;33.67;;;26.73;;
36291;SDS011;22327;51.208;6.418;2022-08-18T05:33:01;36.83;;;27.63;;
36291;SDS011;22327;51.208;6.418;2022-08-18T05:35:40;35.58;;;26.67;;
36291;SDS011;22327;51.208;6.418;2022-08-18T05:38:25;33.50;;;25.65;;
36291;SDS011;22327;51.208;6.418;2022-08-18T05:41:09;34.30;;;25.42;;
36291;SDS011;22327;51.208;6.418;2022-08-18T05:43:37;35.60;;;26.00;;
36291;SDS011;22327;51.208;6.418;2022-08-18T05:46:05;34.28;;;25.48;;
36291;SDS011;22327;51.208;6.418;2022-08-18T05:48:32;36.90;;;27.95;;
36291;SDS011;22327;51.208;6.418;2022-08-18T05:50:59;29.80;;;23.13;;
36291;SDS011;22327;51.208;6.418;2022-08-18T05:53:31;31.90;;;25.13;;
36291;SDS011;22327;51.208;6.418;2022-08-18T05:56:15;36.85;;;26.27;;
36291;SDS011;22327;51.208;6.418;2022-08-18T05:59:06;34.03;;;26.42;;
36291;SDS011;22327;51.208;6.418;2022-08-18T06:01:37;38.95;;;28.25;;
36291;SDS011;22327;51.208;6.418;2022-08-18T06:04:26;40.70;;;29.38;;
36291;SDS011;22327;51.208;6.418;2022-08-18T06:07:03;36.10;;;24.85;;
36291;SDS011;22327;51.208;6.418;2022-08-18T06:09:35;39.15;;;27.20;;
36291;SDS011;22327;51.208;6.418;2022-08-18T06:12:02;35.13;;;26.77;;
36291;SDS011;22327;51.208;6.418;2022-08-18T06:14:35;38.00;;;28.25;;
36291;SDS011;22327;51.208;6.418;2022-08-18T06:19:59;40.50;;;29.25;;
36291;SDS011;22327;51.208;6.418;2022-08-18T06:23:11;41.55;;;28.00;;
36291;SDS011;22327;51.208;6.418;2022-08-18T06:25:56;35.88;;;27.45;;
36291;SDS011;22327;51.208;6.418;2022-08-18T06:28:48;37.40;;;26.50;;
36291;SDS011;22327;51.208;6.418;2022-08-18T06:31:24;39.53;;;29.23;;
36291;SDS011;22327;51.208;6.418;2022-08-18T06:34:16;34.47;;;26.50;;
36291;SDS011;22327;51.208;6.418;2022-08-18T06:37:22;33.38;;;26.38;;
36291;SDS011;22327;51.208;6.418;2022-08-18T06:40:32;37.28;;;27.27;;
36291;SDS011;22327;51.208;6.418;2022-08-18T06:42:58;32.38;;;25.52;;
36291;SDS011;22327;51.208;6.418;2022-08-18T06:45:26;35.42;;;27.67;;
36291;SDS011;22327;51.208;6.418;2022-08-18T06:48:03;34.70;;;27.38;;
36291;SDS011;22327;51.208;6.418;2022-08-18T06:50:52;33.30;;;26.77;;
36291;SDS011;22327;51.208;6.418;2022-08-18T06:55:48;30.48;;;24.25;;
36291;SDS011;22327;51.208;6.418;2022-08-18T07:00:53;31.83;;;24.58;;
36291;SDS011;22327;51.208;6.418;2022-08-18T07:08:41;28.58;;;23.23;;
36291;SDS011;22327;51.208;6.418;2022-08-18T07:13:39;30.02;;;24.05;;
36291;SDS011;22327;51.208;6.418;2022-08-18T07:18:53;26.75;;;21.33;;
36291;SDS011;22327;51.208;6.418;2022-08-18T07:21:23;25.02;;;21.00;;
36291;SDS011;22327;51.208;6.418;2022-08-18T07:29:25;18.88;;;16.67;;
36291;SDS011;22327;51.208;6.418;2022-08-18T07:31:52;18.23;;;16.20;;
36291;SDS011;22327;51.208;6.418;2022-08-18T07:34:27;17.23;;;15.25;;
36291;SDS011;22327;51.208;6.418;2022-08-18T07:37:01;20.55;;;14.85;;
36291;SDS011;22327;51.208;6.418;2022-08-18T07:42:04;14.82;;;13.30;;
36291;SDS011;22327;51.208;6.418;2022-08-18T07:44:48;15.15;;;11.90;;
36291;SDS011;22327;51.208;6.418;2022-08-18T07:49:57;11.13;;;9.93;;
36291;SDS011;22327;51.208;6.418;2022-08-18T07:52:47;13.63;;;10.20;;
36291;SDS011;22327;51.208;6.418;2022-08-18T07:55:28;11.02;;;9.90;;
36291;SDS011;22327;51.208;6.418;2022-08-18T08:01:03;11.35;;;10.15;;
36291;SDS011;22327;51.208;6.418;2022-08-18T08:06:43;12.65;;;9.98;;
36291;SDS011;22327;51.208;6.418;2022-08-18T08:14:40;9.88;;;8.98;;
36291;SDS011;22327;51.208;6.418;2022-08-18T08:20:26;8.50;;;7.57;;
36291;SDS011;22327;51.208;6.418;2022-08-18T08:31:48;11.15;;;9.50;;
36291;SDS011;22327;51.208;6.418;2022-08-18T08:37:02;10.02;;;8.85;;
36291;SDS011;22327;51.208;6.418;2022-08-18T08:39:34;11.30;;;9.60;;
36291;SDS011;22327;51.208;6.418;2022-08-18T08:42:28;8.07;;;7.32;;
36291;SDS011;22327;51.208;6.418;2022-08-18T08:45:01;14.57;;;13.07;;
36291;SDS011;22327;51.208;6.418;2022-08-18T08:50:16;28.10;;;24.25;;
36291;SDS011;22327;51.208;6.418;2022-08-18T09:00:25;11.57;;;10.20;;
36291;SDS011;22327;51.208;6.418;2022-08-18T09:03:11;11.10;;;10.00;;
36291;SDS011;22327;51.208;6.418;2022-08-18T09:06:29;9.85;;;8.85;;
36291;SDS011;22327;51.208;6.418;2022-08-18T09:19:41;8.95;;;7.60;;
36291;SDS011;22327;51.208;6.418;2022-08-18T09:22:17;8.32;;;7.63;;
36291;SDS011;22327;51.208;6.418;2022-08-18T09:25:00;8.18;;;7.47;;
36291;SDS011;22327;51.208;6.418;2022-08-18T09:27:35;7.10;;;6.50;;
36291;SDS011;22327;51.208;6.418;2022-08-18T09:30:07;6.63;;;6.03;;
36291;SDS011;22327;51.208;6.418;2022-08-18T09:35:46;7.28;;;6.45;;
36291;SDS011;22327;51.208;6.418;2022-08-18T09:38:24;7.05;;;6.32;;
36291;SDS011;22327;51.208;6.418;2022-08-18T09:41:11;8.38;;;6.65;;
36291;SDS011;22327;51.208;6.418;2022-08-18T09:44:08;8.35;;;7.65;;
36291;SDS011;22327;51.208;6.418;2022-08-18T09:51:49;10.35;;;9.35;;
36291;SDS011;22327;51.208;6.418;2022-08-18T09:54:17;9.75;;;8.75;;
36291;SDS011;22327;51.208;6.418;2022-08-18T10:01:58;8.00;;;6.70;;
36291;SDS011;22327;51.208;6.418;2022-08-18T10:04:32;7.88;;;6.22;;
36291;SDS011;22327;51.208;6.418;2022-08-18T10:07:12;7.45;;;6.43;;
36291;SDS011;22327;51.208;6.418;2022-08-18T10:21:18;6.13;;;5.53;;
36291;SDS011;22327;51.208;6.418;2022-08-18T10:37:16;6.25;;;5.57;;
36291;SDS011;22327;51.208;6.418;2022-08-18T10:39:47;5.97;;;5.47;;
36291;SDS011;22327;51.208;6.418;2022-08-18T10:44:47;6.45;;;5.57;;
36291;SDS011;22327;51.208;6.418;2022-08-18T10:47:34;6.30;;;5.70;;
36291;SDS011;22327;51.208;6.418;2022-08-18T10:50:02;7.57;;;6.78;;
36291;SDS011;22327;51.208;6.418;2022-08-18T10:55:35;5.95;;;5.07;;
36291;SDS011;22327;51.208;6.418;2022-08-18T11:06:35;5.70;;;5.10;;
36291;SDS011;22327;51.208;6.418;2022-08-18T11:09:05;6.25;;;5.65;;
36291;SDS011;22327;51.208;6.418;2022-08-18T11:11:41;6.35;;;4.88;;
36291;SDS011;22327;51.208;6.418;2022-08-18T11:19:12;8.32;;;6.80;;
36291;SDS011;22327;51.208;6.418;2022-08-18T11:21:41;6.18;;;5.53;;
36291;SDS011;22327;51.208;6.418;2022-08-18T11:24:20;8.05;;;7.30;;
36291;SDS011;22327;51.208;6.418;2022-08-18T11:26:51;7.55;;;6.90;;
36291;SDS011;22327;51.208;6.418;2022-08-18T11:29:22;8.10;;;7.25;;
36291;SDS011;22327;51.208;6.418;2022-08-18T11:34:44;6.70;;;5.82;;
36291;SDS011;22327;51.208;6.418;2022-08-18T11:38:09;5.70;;;5.20;;
36291;SDS011;22327;51.208;6.418;2022-08-18T11:42:46;5.63;;;5.13;;
36291;SDS011;22327;51.208;6.418;2022-08-18T11:45:23;5.65;;;5.15;;
36291;SDS011;22327;51.208;6.418;2022-08-18T11:50:45;6.13;;;5.53;;
36291;SDS011;22327;51.208;6.418;2022-08-18T11:53:15;7.85;;;6.40;;
36291;SDS011;22327;51.208;6.418;2022-08-18T11:56:02;7.00;;;6.28;;
36291;SDS011;22327;51.208;6.418;2022-08-18T11:58:41;5.95;;;5.45;;
36291;SDS011;22327;51.208;6.418;2022-08-18T12:03:58;5.78;;;5.28;;
36291;SDS011;22327;51.208;6.418;2022-08-18T12:06:37;5.90;;;4.97;;
36291;SDS011;22327;51.208;6.418;2022-08-18T12:09:41;5.85;;;5.10;;
36291;SDS011;22327;51.208;6.418;2022-08-18T12:12:22;6.80;;;6.10;;
36291;SDS011;22327;51.208;6.418;2022-08-18T12:17:17;7.07;;;5.20;;
36291;SDS011;22327;51.208;6.418;2022-08-18T12:19:43;6.18;;;5.10;;
36291;SDS011;22327;51.208;6.418;2022-08-18T12:22:16;5.70;;;4.70;;
36291;SDS011;22327;51.208;6.418;2022-08-18T12:24:44;7.47;;;5.82;;
36291;SDS011;22327;51.208;6.418;2022-08-18T12:27:11;7.00;;;6.30;;
36291;SDS011;22327;51.208;6.418;2022-08-18T12:29:39;8.25;;;6.72;;
36291;SDS011;22327;51.208;6.418;2022-08-18T12:32:05;7.68;;;6.85;;
36291;SDS011;22327;51.208;6.418;2022-08-18T12:34:31;6.15;;;5.45;;
36291;SDS011;22327;51.208;6.418;2022-08-18T12:36:57;8.30;;;6.18;;
36291;SDS011;22327;51.208;6.418;2022-08-18T12:39:27;7.00;;;6.00;;
36291;SDS011;22327;51.208;6.418;2022-08-18T12:41:55;6.13;;;5.63;;
36291;SDS011;22327;51.208;6.418;2022-08-18T12:44:21;7.35;;;6.68;;
36291;SDS011;22327;51.208;6.418;2022-08-18T12:46:47;8.43;;;6.18;;
36291;SDS011;22327;51.208;6.418;2022-08-18T12:49:15;6.55;;;5.07;;
36291;SDS011;22327;51.208;6.418;2022-08-18T12:51:42;5.00;;;4.60;;
36291;SDS011;22327;51.208;6.418;2022-08-18T12:54:08;6.22;;;4.47;;
36291;SDS011;22327;51.208;6.418;2022-08-18T12:56:35;6.35;;;5.05;;
36291;SDS011;22327;51.208;6.418;2022-08-18T12:59:01;5.20;;;4.15;;
36291;SDS011;22327;51.208;6.418;2022-08-18T13:01:29;4.57;;;4.20;;
36291;SDS011;22327;51.208;6.418;2022-08-18T13:03:55;5.93;;;5.28;;
36291;SDS011;22327;51.208;6.418;2022-08-18T13:06:22;5.15;;;4.63;;
36291;SDS011;22327;51.208;6.418;2022-08-18T13:08:48;5.28;;;4.50;;
36291;SDS011;22327;51.208;6.418;2022-08-18T13:11:15;5.65;;;5.15;;
36291;SDS011;22327;51.208;6.418;2022-08-18T13:13:42;5.05;;;4.65;;
36291;SDS011;22327;51.208;6.418;2022-08-18T13:16:08;5.13;;;4.63;;
36291;SDS011;22327;51.208;6.418;2022-08-18T13:18:34;4.35;;;4.03;;
36291;SDS011;22327;51.208;6.418;2022-08-18T13:21:01;6.13;;;4.50;;
36291;SDS011;22327;51.208;6.418;2022-08-18T13:23:28;4.85;;;4.45;;
36291;SDS011;22327;51.208;6.418;2022-08-18T13:25:55;5.45;;;4.53;;
36291;SDS011;22327;51.208;6.418;2022-08-18T13:28:22;4.32;;;3.92;;
36291;SDS011;22327;51.208;6.418;2022-08-18T13:30:48;5.50;;;4.95;;
36291;SDS011;22327;51.208;6.418;2022-08-18T13:33:15;4.63;;;4.22;;
36291;SDS011;22327;51.208;6.418;2022-08-18T13:35:42;4.60;;;4.20;;
36291;SDS011;22327;51.208;6.418;2022-08-18T13:38:09;4.70;;;4.20;;
36291;SDS011;22327;51.208;6.418;2022-08-18T13:40:46;4.70;;;4.30;;
36291;SDS011;22327;51.208;6.418;2022-08-18T13:43:17;4.57;;;3.97;;
36291;SDS011;22327;51.208;6.418;2022-08-18T13:45:47;5.15;;;3.95;;
36291;SDS011;22327;51.208;6.418;2022-08-18T13:48:15;4.45;;;4.05;;
36291;SDS011;22327;51.208;6.418;2022-08-18T13:50:41;4.63;;;4.22;;
36291;SDS011;22327;51.208;6.418;2022-08-18T13:53:15;3.60;;;3.15;;
36291;SDS011;22327;51.208;6.418;2022-08-18T13:55:45;7.60;;;3.95;;
36291;SDS011;22327;51.208;6.418;2022-08-18T13:58:11;4.15;;;3.67;;
36291;SDS011;22327;51.208;6.418;2022-08-18T14:00:37;6.20;;;3.95;;
36291;SDS011;22327;51.208;6.418;2022-08-18T14:03:03;5.15;;;3.85;;
36291;SDS011;22327;51.208;6.418;2022-08-18T14:05:30;4.25;;;3.85;;
36291;SDS011;22327;51.208;6.418;2022-08-18T14:07:56;4.03;;;3.30;;
36291;SDS011;22327;51.208;6.418;2022-08-18T14:10:22;4.63;;;3.67;;
36291;SDS011;22327;51.208;6.418;2022-08-18T14:12:49;5.07;;;3.60;;
36291;SDS011;22327;51.208;6.418;2022-08-18T14:15:18;5.80;;;4.10;;
36291;SDS011;22327;51.208;6.418;2022-08-18T14:17:43;4.72;;;4.32;;
36291;SDS011;22327;51.208;6.418;2022-08-18T14:20:09;4.22;;;3.67;;
36291;SDS011;22327;51.208;6.418;2022-08-18T14:22:55;4.20;;;3.80;;
36291;SDS011;22327;51.208;6.418;2022-08-18T14:25:41;5.93;;;3.75;;
36291;SDS011;22327;51.208;6.418;2022-08-18T14:28:26;4.38;;;4.00;;
36291;SDS011;22327;51.208;6.418;2022-08-18T14:30:53;5.60;;;4.55;;
36291;SDS011;22327;51.208;6.418;2022-08-18T14:33:20;3.78;;;3.47;;
36291;SDS011;22327;51.208;6.418;2022-08-18T14:35:46;4.82;;;4.15;;
36291;SDS011;22327;51.208;6.418;2022-08-18T14:38:12;4.57;;;3.90;;
36291;SDS011;22327;51.208;6.418;2022-08-18T14:40:40;5.40;;;4.60;;
36291;SDS011;22327;51.208;6.418;2022-08-18T14:43:07;6.25;;;5.45;;
36291;SDS011;22327;51.208;6.418;2022-08-18T14:45:34;5.22;;;4.70;;
36291;SDS011;22327;51.208;6.418;2022-08-18T14:48:00;5.93;;;4.53;;
36291;SDS011;22327;51.208;6.418;2022-08-18T14:50:30;4.38;;;3.97;;
36291;SDS011;22327;51.208;6.418;2022-08-18T14:52:55;4.53;;;4.13;;
36291;SDS011;22327;51.208;6.418;2022-08-18T14:55:21;6.32;;;4.28;;
36291;SDS011;22327;51.208;6.418;2022-08-18T14:57:47;4.57;;;4.18;;
36291;SDS011;22327;51.208;6.418;2022-08-18T15:00:14;5.30;;;4.05;;
36291;SDS011;22327;51.208;6.418;2022-08-18T15:02:43;5.07;;;4.00;;
36291;SDS011;22327;51.208;6.418;2022-08-18T15:05:10;4.20;;;3.65;;
36291;SDS011;22327;51.208;6.418;2022-08-18T15:07:36;6.53;;;3.90;;
36291;SDS011;22327;51.208;6.418;2022-08-18T15:10:03;5.20;;;4.65;;
36291;SDS011;22327;51.208;6.418;2022-08-18T15:12:30;4.85;;;4.43;;
36291;SDS011;22327;51.208;6.418;2022-08-18T15:14:56;5.05;;;4.55;;
36291;SDS011;22327;51.208;6.418;2022-08-18T15:17:24;4.18;;;3.78;;
36291;SDS011;22327;51.208;6.418;2022-08-18T15:19:51;5.22;;;4.15;;
36291;SDS011;22327;51.208;6.418;2022-08-18T15:22:17;4.93;;;4.50;;
36291;SDS011;22327;51.208;6.418;2022-08-18T15:25:02;4.10;;;3.70;;
36291;SDS011;22327;51.208;6.418;2022-08-18T15:27:46;5.05;;;4.40;;
36291;SDS011;22327;51.208;6.418;2022-08-18T15:30:13;6.15;;;4.03;;
36291;SDS011;22327;51.208;6.418;2022-08-18T15:32:40;4.10;;;3.70;;
36291;SDS011;22327;51.208;6.418;2022-08-18T15:35:11;5.13;;;3.95;;
36291;SDS011;22327;51.208;6.418;2022-08-18T15:37:40;6.97;;;4.13;;
36291;SDS011;22327;51.208;6.418;2022-08-18T15:40:15;4.55;;;3.53;;
36291;SDS011;22327;51.208;6.418;2022-08-18T15:42:48;4.55;;;4.15;;
36291;SDS011;22327;51.208;6.418;2022-08-18T15:45:19;4.97;;;4.55;;
36291;SDS011;22327;51.208;6.418;2022-08-18T15:47:49;4.72;;;4.10;;
36291;SDS011;22327;51.208;6.418;2022-08-18T15:50:15;5.95;;;4.72;;
36291;SDS011;22327;51.208;6.418;2022-08-18T15:52:45;5.10;;;4.60;;
36291;SDS011;22327;51.208;6.418;2022-08-18T15:55:13;4.13;;;3.83;;
36291;SDS011;22327;51.208;6.418;2022-08-18T15:57:39;4.30;;;3.92;;
36291;SDS011;22327;51.208;6.418;2022-08-18T16:00:05;4.65;;;4.25;;
36291;SDS011;22327;51.208;6.418;2022-08-18T16:02:32;5.30;;;4.80;;
36291;SDS011;22327;51.208;6.418;2022-08-18T16:04:58;5.13;;;4.60;;
36291;SDS011;22327;51.208;6.418;2022-08-18T16:07:25;5.93;;;5.32;;
36291;SDS011;22327;51.208;6.418;2022-08-18T16:09:52;5.22;;;4.72;;
36291;SDS011;22327;51.208;6.418;2022-08-18T16:12:18;5.28;;;4.72;;
36291;SDS011;22327;51.208;6.418;2022-08-18T16:14:44;6.60;;;5.30;;
36291;SDS011;22327;51.208;6.418;2022-08-18T16:17:09;6.70;;;4.22;;
36291;SDS011;22327;51.208;6.418;2022-08-18T16:19:35;5.82;;;5.22;;
36291;SDS011;22327;51.208;6.418;2022-08-18T16:22:01;4.60;;;4.20;;
36291;SDS011;22327;51.208;6.418;2022-08-18T16:24:30;4.32;;;3.92;;
36291;SDS011;22327;51.208;6.418;2022-08-18T16:26:55;4.03;;;3.72;;
36291;SDS011;22327;51.208;6.418;2022-08-18T16:29:21;4.15;;;3.75;;
36291;SDS011;22327;51.208;6.418;2022-08-18T16:31:47;4.93;;;4.45;;
36291;SDS011;22327;51.208;6.418;2022-08-18T16:34:13;9.60;;;5.07;;
36291;SDS011;22327;51.208;6.418;2022-08-18T16:36:38;4.75;;;4.35;;
36291;SDS011;22327;51.208;6.418;2022-08-18T16:39:04;5.18;;;4.05;;
36291;SDS011;22327;51.208;6.418;2022-08-18T16:41:29;4.93;;;4.53;;
36291;SDS011;22327;51.208;6.418;2022-08-18T16:43:55;4.80;;;4.03;;
36291;SDS011;22327;51.208;6.418;2022-08-18T16:46:22;4.63;;;4.10;;
36291;SDS011;22327;51.208;6.418;2022-08-18T16:48:51;4.32;;;3.92;;
36291;SDS011;22327;51.208;6.418;2022-08-18T16:51:19;5.25;;;4.18;;
36291;SDS011;22327;51.208;6.418;2022-08-18T16:53:47;4.88;;;4.47;;
36291;SDS011;22327;51.208;6.418;2022-08-18T16:56:17;4.88;;;4.43;;
36291;SDS011;22327;51.208;6.418;2022-08-18T16:58:45;5.43;;;4.47;;
36291;SDS011;22327;51.208;6.418;2022-08-18T17:01:30;6.38;;;4.50;;
36291;SDS011;22327;51.208;6.418;2022-08-18T17:04:16;4.65;;;4.25;;
36291;SDS011;22327;51.208;6.418;2022-08-18T17:06:46;5.07;;;4.32;;
36291;SDS011;22327;51.208;6.418;2022-08-18T17:09:13;4.57;;;4.18;;
36291;SDS011;22327;51.208;6.418;2022-08-18T17:11:39;4.47;;;4.10;;
36291;SDS011;22327;51.208;6.418;2022-08-18T17:14:05;5.63;;;4.47;;
36291;SDS011;22327;51.208;6.418;2022-08-18T17:16:32;4.50;;;4.10;;
36291;SDS011;22327;51.208;6.418;2022-08-18T17:18:59;5.35;;;4.53;;
36291;SDS011;22327;51.208;6.418;2022-08-18T17:21:26;5.05;;;4.65;;